Thursday, March 21, 2019, 4:41 PM EDT
Back to Local

KTTN, Trenton Mercer County Airport

Location: Trenton, NJ, United States Lat: 40.283
Local Time: 4:41 PM EDT (20:41 GMT) Lon: -74.817
Time Zone: US/Eastern Elev: 213 ft

Show me the last for .
Show Decoded

2019-03-21 16:12 METAR KTTN 212012Z COR 10014KT 5SM RA BR OVC008 09/08 A2982 RMK AO2 PRESFR P0002
                 T00890078 =
2019-03-21 15:53 METAR KTTN 211953Z 11013G22KT 5SM -RA BR OVC009 09/08 A2984 RMK AO2 CIG 008V012
                 SLP101 P0005 T00890078 =
2019-03-21 15:05 METAR KTTN 211905Z 10010KT 4SM -RA BR OVC007 09/08 A2987 RMK AO2 P0002 T00890083
                 =
2019-03-21 14:53 METAR KTTN 211853Z 11009KT 2 1/2SM RA BR OVC008 09/08 A2988 RMK AO2 CIG 005V010
                 SLP114 P0012 T00890083 =
2019-03-21 14:48 METAR KTTN 211848Z 10010KT 2 1/2SM RA BR OVC008 09/08 A2988 RMK AO2 CIG 005V010
                 P0011 =
2019-03-21 14:23 METAR KTTN 211823Z 09010KT 4SM -RA BR BKN007 OVC013 08/08 A2990 RMK AO2 CIG
                 005V010 PRESFR P0006 T00830078 =
2019-03-21 14:03 METAR KTTN 211803Z 10010KT 2 1/2SM RA BR OVC007 08/08 A2992 RMK AO2 CIG 005V012
                 P0003 T00830078 =
2019-03-21 13:53 METAR KTTN 211753Z 09012KT 3SM RA BR OVC007 08/08 A2993 RMK AO2 CIG 004V011
                 SLP130 P0006 60032 T00830078 10083 20056 56034 =
2019-03-21 13:45 METAR KTTN 211745Z 08011KT 2 1/2SM RA BR OVC008 08/08 A2993 RMK AO2 CIG 004V011
                 P0004 T00830078 =
2019-03-21 12:53 METAR KTTN 211653Z 08009KT 5SM -RA BR BKN007 OVC011 08/07 A2996 RMK AO2 CIG
                 005V009 SLP140 P0005 T00780072 =
2019-03-21 11:53 METAR KTTN 211553Z 09010KT 3SM RA BR OVC008 08/07 A3000 RMK AO2 CIG 006V012
                 SLP153 P0008 T00780072 =
2019-03-21 10:59 METAR KTTN 211459Z 07007KT 5SM -RA BR BKN008 BKN015 OVC035 07/07 A3003 RMK AO2
                 P0001 T00720067 =
2019-03-21 10:57 METAR KTTN 211457Z 07007KT 4SM -RA BR SCT008 BKN015 OVC035 07/07 A3003 RMK AO2
                 P0001 T00720067 =
2019-03-21 10:53 METAR KTTN 211453Z 06009KT 4SM RA BR BKN008 OVC015 07/07 A3003 RMK AO2 CIG
                 007V010 SLP164 P0003 60013 T00720067 58023 =
2019-03-21 10:30 METAR KTTN 211430Z 08007KT 6SM -RA BR FEW008 BKN015 OVC031 07/07 A3005 RMK AO2
                 P0001 T00720067 =
2019-03-21 10:20 METAR KTTN 211420Z 06010KT 9SM -RA FEW015 OVC031 07/06 A3004 RMK AO2 P0000
                 T00720061 =
2019-03-21 09:53 METAR KTTN 211353Z 07009KT 5SM -RA BR FEW007 OVC027 07/06 A3005 RMK AO2 SLP171
                 P0007 T00670061 =
2019-03-21 08:53 METAR KTTN 211253Z 08008KT 4SM -RA BR FEW008 BKN028 OVC070 06/06 A3008 RMK AO2
                 RAB1155 SLP181 P0003 T00610056 =
2019-03-21 08:20 METAR KTTN 211220Z 05008KT 3SM -RA BR FEW016 SCT022 OVC027 06/05 A3009 RMK AO2
                 RAB1155 P0001 T00610050 =
2019-03-21 08:10 METAR KTTN 211210Z 06007KT 1 3/4SM -RA BR FEW016 OVC024 06/05 A3009 RMK AO2
                 RAB1155 P0001 T00560050 =
2019-03-21 07:53 METAR KTTN 211153Z 06005KT 6SM BR OVC024 06/05 A3010 RMK AO2 RAE23 SLP187 P0002
                 60005 70005 T00560050 10061 20050 56007 =
2019-03-21 06:53 METAR KTTN 211053Z 07006KT 6SM -RA BR OVC024 06/04 A3010 RMK AO2 SLP187 P0002
                 T00560044 =
2019-03-21 05:53 METAR KTTN 210953Z 06006KT 3SM -RA BR OVC021 05/03 A3011 RMK AO2 RAB36 SLP192
                 P0001 T00500033 =
2019-03-21 05:48 METAR KTTN 210948Z AUTO 07006KT 2 1/2SM -RA BR OVC019 05/03 A3012 RMK AO2 RAB36
                 P0001 =
2019-03-21 04:53 METAR KTTN 210853Z AUTO 09005KT 10SM BKN024 BKN029 OVC047 06/02 A3013 RMK AO2
                 RAE25 SLP199 P0000 60000 T00560022 56018 =
2019-03-21 04:50 METAR KTTN 210850Z AUTO 09005KT 10SM BKN026 BKN037 OVC047 06/02 A3014 RMK AO2
                 RAE25 P0000 =
2019-03-21 04:42 METAR KTTN 210842Z AUTO 07004KT 10SM SCT026 BKN037 OVC046 06/02 A3014 RMK AO2
                 RAE25 P0000 T00560022 =
2019-03-21 03:53 METAR KTTN 210753Z AUTO 09003KT 10SM -RA BKN028 OVC042 06/02 A3016 RMK AO2 RAB42
                 SLP209 P0000 T00610017 =
2019-03-21 03:37 METAR KTTN 210737Z AUTO 07004KT 10SM SCT029 OVC042 06/02 A3017 RMK AO2 T00610017
                 =
2019-03-21 02:53 METAR KTTN 210653Z AUTO 09003KT 10SM BKN028 OVC049 06/01 A3019 RMK AO2 SLP217
                 T00560011 =
2019-03-21 02:46 METAR KTTN 210646Z AUTO 07003KT 10SM BKN028 OVC049 06/01 A3019 RMK AO2 T00610011
                 =
2019-03-21 01:53 METAR KTTN 210553Z AUTO 11005KT 10SM OVC035 06/01 A3020 RMK AO2 SLP223 T00560006
                 10072 20050 58023 =
2019-03-21 00:53 METAR KTTN 210453Z AUTO 12006KT 10SM SCT040 BKN050 06/00 A3023 RMK AO2 SLP231
                 T00560000 401171033 =
2019-03-20 23:53 METAR KTTN 210353Z AUTO 14009KT 10SM BKN037 BKN046 OVC120 06/01 A3026 RMK AO2
                 SLP243 T00610006 =
2019-03-20 22:53 METAR KTTN 210253Z AUTO 13004KT 7SM OVC040 06/01 A3027 RMK AO2 SLP246 T00610006
                 58003 =
2019-03-20 21:53 METAR KTTN 210153Z 14008KT 10SM FEW047 06/00 A3028 RMK AO2 SLP249 T00610000 =
2019-03-20 20:53 METAR KTTN 210053Z 16009KT 10SM CLR 07/M01 A3028 RMK AO2 SLP250 T00671006 =
2019-03-20 19:53 METAR KTTN 202353Z 17011KT 10SM CLR 07/M01 A3028 RMK AO2 SLP249 T00721006 10117
                 20072 53004 =
2019-03-20 18:53 METAR KTTN 202253Z 16012G18KT 10SM CLR 08/M02 A3028 RMK AO2 SLP247 T00781022 =
2019-03-20 17:53 METAR KTTN 202153Z COR 18010KT 10SM CLR 10/M06 A3027 RMK AO2 SLP245 T01001061 =
2019-03-20 16:53 METAR KTTN 202053Z 16009KT 10SM CLR 11/M06 A3027 RMK AO2 SLP245 T01111061 56022
                 =

Support USWX by starting your Amazon purchase here.